sensor_id;sensor_type;location;lat;lon;timestamp;temperature;humidity
3790;DHT22;1910;49.042;9.028;2022-07-06T00:00:27;17.10;99.90
3790;DHT22;1910;49.042;9.028;2022-07-06T00:02:52;17.10;99.90
3790;DHT22;1910;49.042;9.028;2022-07-06T00:05:18;17.30;99.90
3790;DHT22;1910;49.042;9.028;2022-07-06T00:07:43;17.30;99.90
3790;DHT22;1910;49.042;9.028;2022-07-06T00:10:09;17.40;99.90
3790;DHT22;1910;49.042;9.028;2022-07-06T00:12:34;17.40;99.90
3790;DHT22;1910;49.042;9.028;2022-07-06T00:15:00;17.40;99.90
3790;DHT22;1910;49.042;9.028;2022-07-06T00:17:25;17.40;99.90
3790;DHT22;1910;49.042;9.028;2022-07-06T00:19:51;17.40;99.90
3790;DHT22;1910;49.042;9.028;2022-07-06T00:22:16;17.40;99.90
3790;DHT22;1910;49.042;9.028;2022-07-06T00:24:42;17.30;99.90
3790;DHT22;1910;49.042;9.028;2022-07-06T00:27:07;17.30;99.90
3790;DHT22;1910;49.042;9.028;2022-07-06T00:29:33;17.30;99.90
3790;DHT22;1910;49.042;9.028;2022-07-06T00:31:58;17.30;99.90
3790;DHT22;1910;49.042;9.028;2022-07-06T00:34:24;17.20;99.90
3790;DHT22;1910;49.042;9.028;2022-07-06T00:36:49;17.20;99.90
3790;DHT22;1910;49.042;9.028;2022-07-06T00:39:15;17.20;99.90
3790;DHT22;1910;49.042;9.028;2022-07-06T00:41:40;17.40;99.90
3790;DHT22;1910;49.042;9.028;2022-07-06T00:44:09;17.60;99.90
3790;DHT22;1910;49.042;9.028;2022-07-06T00:46:35;17.70;99.90
3790;DHT22;1910;49.042;9.028;2022-07-06T00:49:01;17.70;99.90
3790;DHT22;1910;49.042;9.028;2022-07-06T00:51:32;17.80;99.90
3790;DHT22;1910;49.042;9.028;2022-07-06T00:54:00;17.80;99.90
3790;DHT22;1910;49.042;9.028;2022-07-06T00:56:29;17.70;99.90
3790;DHT22;1910;49.042;9.028;2022-07-06T00:58:56;17.70;99.90
3790;DHT22;1910;49.042;9.028;2022-07-06T01:01:22;17.70;99.90
3790;DHT22;1910;49.042;9.028;2022-07-06T01:03:47;17.60;99.90
3790;DHT22;1910;49.042;9.028;2022-07-06T01:06:13;17.60;99.90
3790;DHT22;1910;49.042;9.028;2022-07-06T01:08:39;17.60;99.90
3790;DHT22;1910;49.042;9.028;2022-07-06T01:11:04;17.60;99.90
3790;DHT22;1910;49.042;9.028;2022-07-06T01:13:31;17.50;99.90
3790;DHT22;1910;49.042;9.028;2022-07-06T01:15:57;17.40;99.90
3790;DHT22;1910;49.042;9.028;2022-07-06T01:18:23;17.40;99.90
3790;DHT22;1910;49.042;9.028;2022-07-06T01:20:49;17.40;99.90
3790;DHT22;1910;49.042;9.028;2022-07-06T01:23:15;17.40;99.90
3790;DHT22;1910;49.042;9.028;2022-07-06T01:25:40;17.40;99.90
3790;DHT22;1910;49.042;9.028;2022-07-06T01:28:06;17.40;99.90
3790;DHT22;1910;49.042;9.028;2022-07-06T01:30:31;17.30;99.90
3790;DHT22;1910;49.042;9.028;2022-07-06T01:32:57;17.20;99.90
3790;DHT22;1910;49.042;9.028;2022-07-06T01:35:24;17.10;99.90
3790;DHT22;1910;49.042;9.028;2022-07-06T01:37:51;17.10;99.90
3790;DHT22;1910;49.042;9.028;2022-07-06T01:40:17;17.00;99.90
3790;DHT22;1910;49.042;9.028;2022-07-06T01:42:42;16.80;99.90
3790;DHT22;1910;49.042;9.028;2022-07-06T01:45:08;16.90;99.90
3790;DHT22;1910;49.042;9.028;2022-07-06T01:47:34;16.90;99.90
3790;DHT22;1910;49.042;9.028;2022-07-06T01:50:01;16.90;99.90
3790;DHT22;1910;49.042;9.028;2022-07-06T01:52:29;16.80;99.90
3790;DHT22;1910;49.042;9.028;2022-07-06T01:54:55;16.70;99.90
3790;DHT22;1910;49.042;9.028;2022-07-06T01:57:21;16.50;99.90
3790;DHT22;1910;49.042;9.028;2022-07-06T01:59:47;16.40;99.90
3790;DHT22;1910;49.042;9.028;2022-07-06T02:02:12;16.80;99.90
3790;DHT22;1910;49.042;9.028;2022-07-06T02:04:38;16.30;99.90
3790;DHT22;1910;49.042;9.028;2022-07-06T02:07:04;16.10;99.90
3790;DHT22;1910;49.042;9.028;2022-07-06T02:09:29;16.10;99.90
3790;DHT22;1910;49.042;9.028;2022-07-06T02:11:55;16.00;99.90
3790;DHT22;1910;49.042;9.028;2022-07-06T02:14:20;16.00;99.90
3790;DHT22;1910;49.042;9.028;2022-07-06T02:16:46;15.90;99.90
3790;DHT22;1910;49.042;9.028;2022-07-06T02:19:11;16.10;99.90
3790;DHT22;1910;49.042;9.028;2022-07-06T02:21:37;15.80;99.90
3790;DHT22;1910;49.042;9.028;2022-07-06T02:24:03;15.80;99.90
3790;DHT22;1910;49.042;9.028;2022-07-06T02:26:28;15.70;99.90
3790;DHT22;1910;49.042;9.028;2022-07-06T02:28:54;15.70;99.90
3790;DHT22;1910;49.042;9.028;2022-07-06T02:31:19;15.70;99.90
3790;DHT22;1910;49.042;9.028;2022-07-06T02:33:45;15.60;99.90
3790;DHT22;1910;49.042;9.028;2022-07-06T02:36:11;15.60;99.90
3790;DHT22;1910;49.042;9.028;2022-07-06T02:38:36;15.60;99.90
3790;DHT22;1910;49.042;9.028;2022-07-06T02:41:02;15.70;99.90
3790;DHT22;1910;49.042;9.028;2022-07-06T02:43:27;15.70;99.90
3790;DHT22;1910;49.042;9.028;2022-07-06T02:45:53;15.60;99.90
3790;DHT22;1910;49.042;9.028;2022-07-06T02:51:41;15.60;99.90
3790;DHT22;1910;49.042;9.028;2022-07-06T02:54:06;15.60;99.90
3790;DHT22;1910;49.042;9.028;2022-07-06T02:56:32;15.50;99.90
3790;DHT22;1910;49.042;9.028;2022-07-06T02:58:57;15.50;99.90
3790;DHT22;1910;49.042;9.028;2022-07-06T03:01:23;15.50;99.90
3790;DHT22;1910;49.042;9.028;2022-07-06T03:03:48;15.50;99.90
3790;DHT22;1910;49.042;9.028;2022-07-06T03:06:14;15.50;99.90
3790;DHT22;1910;49.042;9.028;2022-07-06T03:08:39;15.40;99.90
3790;DHT22;1910;49.042;9.028;2022-07-06T03:11:05;15.40;99.90
3790;DHT22;1910;49.042;9.028;2022-07-06T03:13:31;15.50;99.90
3790;DHT22;1910;49.042;9.028;2022-07-06T03:15:57;15.40;99.90
3790;DHT22;1910;49.042;9.028;2022-07-06T03:18:23;15.50;99.90
3790;DHT22;1910;49.042;9.028;2022-07-06T03:20:48;15.50;99.90
3790;DHT22;1910;49.042;9.028;2022-07-06T03:23:14;15.50;99.90
3790;DHT22;1910;49.042;9.028;2022-07-06T03:25:39;15.50;99.90
3790;DHT22;1910;49.042;9.028;2022-07-06T03:28:05;15.50;99.90
3790;DHT22;1910;49.042;9.028;2022-07-06T03:30:30;15.50;99.90
3790;DHT22;1910;49.042;9.028;2022-07-06T03:32:55;15.50;99.90
3790;DHT22;1910;49.042;9.028;2022-07-06T03:35:21;15.60;99.90
3790;DHT22;1910;49.042;9.028;2022-07-06T03:37:47;15.70;99.90
3790;DHT22;1910;49.042;9.028;2022-07-06T03:40:12;15.70;99.90
3790;DHT22;1910;49.042;9.028;2022-07-06T03:42:39;15.70;99.90
3790;DHT22;1910;49.042;9.028;2022-07-06T03:45:05;15.70;99.90
3790;DHT22;1910;49.042;9.028;2022-07-06T03:47:30;15.80;99.90
3790;DHT22;1910;49.042;9.028;2022-07-06T03:49:56;15.80;99.90
3790;DHT22;1910;49.042;9.028;2022-07-06T03:52:21;15.80;99.90
3790;DHT22;1910;49.042;9.028;2022-07-06T03:54:47;15.80;99.90
3790;DHT22;1910;49.042;9.028;2022-07-06T03:57:13;15.90;99.90
3790;DHT22;1910;49.042;9.028;2022-07-06T03:59:39;15.90;99.90
3790;DHT22;1910;49.042;9.028;2022-07-06T04:02:05;15.90;99.90
3790;DHT22;1910;49.042;9.028;2022-07-06T04:04:31;15.90;99.90
3790;DHT22;1910;49.042;9.028;2022-07-06T04:06:58;16.00;99.90
3790;DHT22;1910;49.042;9.028;2022-07-06T04:09:24;16.00;99.90
3790;DHT22;1910;49.042;9.028;2022-07-06T04:11:49;15.90;99.90
3790;DHT22;1910;49.042;9.028;2022-07-06T04:14:14;16.00;99.90
3790;DHT22;1910;49.042;9.028;2022-07-06T04:16:40;16.10;99.90
3790;DHT22;1910;49.042;9.028;2022-07-06T04:19:06;16.10;99.90
3790;DHT22;1910;49.042;9.028;2022-07-06T04:21:31;16.30;99.90
3790;DHT22;1910;49.042;9.028;2022-07-06T04:23:57;17.10;99.90
3790;DHT22;1910;49.042;9.028;2022-07-06T04:26:22;18.00;99.90
3790;DHT22;1910;49.042;9.028;2022-07-06T04:28:48;19.20;99.90
3790;DHT22;1910;49.042;9.028;2022-07-06T04:31:13;20.20;99.90
3790;DHT22;1910;49.042;9.028;2022-07-06T04:33:41;20.50;99.90
3790;DHT22;1910;49.042;9.028;2022-07-06T04:36:07;21.30;99.90
3790;DHT22;1910;49.042;9.028;2022-07-06T04:38:33;21.10;99.90
3790;DHT22;1910;49.042;9.028;2022-07-06T04:40:58;21.60;99.90
3790;DHT22;1910;49.042;9.028;2022-07-06T04:43:24;21.70;99.90
3790;DHT22;1910;49.042;9.028;2022-07-06T04:45:49;21.80;99.90
3790;DHT22;1910;49.042;9.028;2022-07-06T04:48:15;22.40;99.90
3790;DHT22;1910;49.042;9.028;2022-07-06T04:50:40;22.50;99.90
3790;DHT22;1910;49.042;9.028;2022-07-06T04:53:06;22.70;99.10
3790;DHT22;1910;49.042;9.028;2022-07-06T04:55:31;23.00;97.70
3790;DHT22;1910;49.042;9.028;2022-07-06T04:57:57;23.30;97.30
3790;DHT22;1910;49.042;9.028;2022-07-06T05:00:23;23.50;95.60
3790;DHT22;1910;49.042;9.028;2022-07-06T05:02:48;23.00;95.40
3790;DHT22;1910;49.042;9.028;2022-07-06T05:05:14;23.60;95.30
3790;DHT22;1910;49.042;9.028;2022-07-06T05:07:39;24.50;95.20
3790;DHT22;1910;49.042;9.028;2022-07-06T05:10:09;25.20;93.00
3790;DHT22;1910;49.042;9.028;2022-07-06T05:12:35;24.20;91.70
3790;DHT22;1910;49.042;9.028;2022-07-06T05:15:01;22.00;94.30
3790;DHT22;1910;49.042;9.028;2022-07-06T05:17:26;21.50;97.30
3790;DHT22;1910;49.042;9.028;2022-07-06T05:19:52;20.40;99.20
3790;DHT22;1910;49.042;9.028;2022-07-06T05:22:18;20.50;99.90
3790;DHT22;1910;49.042;9.028;2022-07-06T05:24:44;20.50;99.90
3790;DHT22;1910;49.042;9.028;2022-07-06T05:27:09;20.60;99.90
3790;DHT22;1910;49.042;9.028;2022-07-06T05:29:35;21.20;99.90
3790;DHT22;1910;49.042;9.028;2022-07-06T05:32:01;22.90;99.70
3790;DHT22;1910;49.042;9.028;2022-07-06T05:34:27;22.80;96.10
3790;DHT22;1910;49.042;9.028;2022-07-06T05:36:53;22.50;97.40
3790;DHT22;1910;49.042;9.028;2022-07-06T05:39:18;21.60;98.70
3790;DHT22;1910;49.042;9.028;2022-07-06T05:41:46;21.90;99.70
3790;DHT22;1910;49.042;9.028;2022-07-06T05:44:12;22.20;98.30
3790;DHT22;1910;49.042;9.028;2022-07-06T05:46:38;23.90;97.70
3790;DHT22;1910;49.042;9.028;2022-07-06T05:49:03;24.20;94.60
3790;DHT22;1910;49.042;9.028;2022-07-06T05:51:48;23.10;94.70
3790;DHT22;1910;49.042;9.028;2022-07-06T05:54:14;24.70;93.90
3790;DHT22;1910;49.042;9.028;2022-07-06T05:56:40;24.40;92.40
3790;DHT22;1910;49.042;9.028;2022-07-06T05:59:05;23.10;93.90
3790;DHT22;1910;49.042;9.028;2022-07-06T06:01:31;22.90;94.70
3790;DHT22;1910;49.042;9.028;2022-07-06T06:03:57;23.20;96.40
3790;DHT22;1910;49.042;9.028;2022-07-06T06:06:22;24.10;94.50
3790;DHT22;1910;49.042;9.028;2022-07-06T06:08:48;24.90;92.70
3790;DHT22;1910;49.042;9.028;2022-07-06T06:11:13;24.50;92.20
3790;DHT22;1910;49.042;9.028;2022-07-06T06:13:39;24.40;92.40
3790;DHT22;1910;49.042;9.028;2022-07-06T06:16:04;24.80;92.00
3790;DHT22;1910;49.042;9.028;2022-07-06T06:18:30;25.80;90.40
3790;DHT22;1910;49.042;9.028;2022-07-06T06:20:55;25.40;87.30
3790;DHT22;1910;49.042;9.028;2022-07-06T06:23:21;26.20;88.70
3790;DHT22;1910;49.042;9.028;2022-07-06T06:25:46;25.60;85.20
3790;DHT22;1910;49.042;9.028;2022-07-06T06:28:12;26.70;84.60
3790;DHT22;1910;49.042;9.028;2022-07-06T06:30:39;26.80;85.50
3790;DHT22;1910;49.042;9.028;2022-07-06T06:33:24;26.70;81.30
3790;DHT22;1910;49.042;9.028;2022-07-06T06:35:51;25.40;84.10
3790;DHT22;1910;49.042;9.028;2022-07-06T06:38:19;24.50;86.00
3790;DHT22;1910;49.042;9.028;2022-07-06T06:40:45;23.40;90.20
3790;DHT22;1910;49.042;9.028;2022-07-06T06:43:11;24.30;92.60
3790;DHT22;1910;49.042;9.028;2022-07-06T06:45:37;24.50;90.50
3790;DHT22;1910;49.042;9.028;2022-07-06T06:48:03;25.00;90.10
3790;DHT22;1910;49.042;9.028;2022-07-06T06:50:29;24.60;88.10
3790;DHT22;1910;49.042;9.028;2022-07-06T06:52:55;24.40;90.10
3790;DHT22;1910;49.042;9.028;2022-07-06T06:55:20;23.80;91.20
3790;DHT22;1910;49.042;9.028;2022-07-06T06:57:45;24.40;91.20
3790;DHT22;1910;49.042;9.028;2022-07-06T07:00:12;25.00;90.00
3790;DHT22;1910;49.042;9.028;2022-07-06T07:02:37;24.70;90.20
3790;DHT22;1910;49.042;9.028;2022-07-06T07:05:04;23.30;88.40
3790;DHT22;1910;49.042;9.028;2022-07-06T07:07:30;22.60;93.20
3790;DHT22;1910;49.042;9.028;2022-07-06T07:09:56;23.00;93.30
3790;DHT22;1910;49.042;9.028;2022-07-06T07:12:21;22.80;93.50
3790;DHT22;1910;49.042;9.028;2022-07-06T07:14:47;23.90;93.60
3790;DHT22;1910;49.042;9.028;2022-07-06T07:17:12;25.10;90.50
3790;DHT22;1910;49.042;9.028;2022-07-06T07:19:39;26.80;89.60
3790;DHT22;1910;49.042;9.028;2022-07-06T07:22:04;28.50;82.90
3790;DHT22;1910;49.042;9.028;2022-07-06T07:24:30;27.00;83.70
3790;DHT22;1910;49.042;9.028;2022-07-06T07:26:55;26.40;80.50
3790;DHT22;1910;49.042;9.028;2022-07-06T07:29:21;27.10;81.00
3790;DHT22;1910;49.042;9.028;2022-07-06T07:31:47;26.20;80.70
3790;DHT22;1910;49.042;9.028;2022-07-06T07:34:12;25.20;82.60
3790;DHT22;1910;49.042;9.028;2022-07-06T07:36:38;25.20;85.30
3790;DHT22;1910;49.042;9.028;2022-07-06T07:39:04;26.50;84.60
3790;DHT22;1910;49.042;9.028;2022-07-06T07:41:29;29.00;79.70
3790;DHT22;1910;49.042;9.028;2022-07-06T07:43:55;30.50;72.50
3790;DHT22;1910;49.042;9.028;2022-07-06T07:46:21;31.70;67.30
3790;DHT22;1910;49.042;9.028;2022-07-06T07:48:46;32.10;62.80
3790;DHT22;1910;49.042;9.028;2022-07-06T07:51:12;29.80;62.20
3790;DHT22;1910;49.042;9.028;2022-07-06T07:53:37;29.40;68.00
3790;DHT22;1910;49.042;9.028;2022-07-06T07:56:03;29.30;64.80
3790;DHT22;1910;49.042;9.028;2022-07-06T07:58:28;29.70;63.50
3790;DHT22;1910;49.042;9.028;2022-07-06T08:00:54;29.70;67.40
3790;DHT22;1910;49.042;9.028;2022-07-06T08:03:20;29.30;67.60
3790;DHT22;1910;49.042;9.028;2022-07-06T08:05:45;28.40;67.50
3790;DHT22;1910;49.042;9.028;2022-07-06T08:08:13;29.40;64.20
3790;DHT22;1910;49.042;9.028;2022-07-06T08:10:38;29.40;65.30
3790;DHT22;1910;49.042;9.028;2022-07-06T08:13:04;27.90;65.10
3790;DHT22;1910;49.042;9.028;2022-07-06T08:15:29;27.70;68.60
3790;DHT22;1910;49.042;9.028;2022-07-06T08:17:56;27.60;70.50
3790;DHT22;1910;49.042;9.028;2022-07-06T08:20:21;29.60;70.50
3790;DHT22;1910;49.042;9.028;2022-07-06T08:22:47;29.90;65.30
3790;DHT22;1910;49.042;9.028;2022-07-06T08:25:13;30.50;62.90
3790;DHT22;1910;49.042;9.028;2022-07-06T08:27:38;30.60;63.60
3790;DHT22;1910;49.042;9.028;2022-07-06T08:30:05;32.00;61.70
3790;DHT22;1910;49.042;9.028;2022-07-06T08:32:30;30.70;59.20
3790;DHT22;1910;49.042;9.028;2022-07-06T08:34:56;30.50;60.10
3790;DHT22;1910;49.042;9.028;2022-07-06T08:37:21;30.30;58.80
3790;DHT22;1910;49.042;9.028;2022-07-06T08:39:47;29.80;60.30
3790;DHT22;1910;49.042;9.028;2022-07-06T08:42:15;30.10;59.60
3790;DHT22;1910;49.042;9.028;2022-07-06T08:44:41;31.30;59.00
3790;DHT22;1910;49.042;9.028;2022-07-06T08:47:09;31.20;57.80
3790;DHT22;1910;49.042;9.028;2022-07-06T08:49:36;31.50;58.40
3790;DHT22;1910;49.042;9.028;2022-07-06T08:52:03;31.70;57.80
3790;DHT22;1910;49.042;9.028;2022-07-06T08:54:30;32.10;56.10
3790;DHT22;1910;49.042;9.028;2022-07-06T08:56:55;31.10;55.30
3790;DHT22;1910;49.042;9.028;2022-07-06T08:59:21;30.30;57.50
3790;DHT22;1910;49.042;9.028;2022-07-06T09:01:47;29.40;58.20
3790;DHT22;1910;49.042;9.028;2022-07-06T09:04:15;29.30;60.00
3790;DHT22;1910;49.042;9.028;2022-07-06T09:06:43;29.20;59.80
3790;DHT22;1910;49.042;9.028;2022-07-06T09:09:10;28.60;61.00
3790;DHT22;1910;49.042;9.028;2022-07-06T09:11:39;27.50;63.60
3790;DHT22;1910;49.042;9.028;2022-07-06T09:14:04;27.20;64.80
3790;DHT22;1910;49.042;9.028;2022-07-06T09:16:30;26.80;66.90
3790;DHT22;1910;49.042;9.028;2022-07-06T09:18:56;26.50;68.30
3790;DHT22;1910;49.042;9.028;2022-07-06T09:21:25;26.30;69.10
3790;DHT22;1910;49.042;9.028;2022-07-06T09:23:59;27.80;67.80
3790;DHT22;1910;49.042;9.028;2022-07-06T09:26:25;28.40;64.40
3790;DHT22;1910;49.042;9.028;2022-07-06T09:28:52;27.20;65.80
3790;DHT22;1910;49.042;9.028;2022-07-06T09:31:19;27.20;67.30
3790;DHT22;1910;49.042;9.028;2022-07-06T09:34:03;28.30;67.30
3790;DHT22;1910;49.042;9.028;2022-07-06T09:36:44;28.10;67.00
3790;DHT22;1910;49.042;9.028;2022-07-06T09:39:26;27.60;66.20
3790;DHT22;1910;49.042;9.028;2022-07-06T09:41:56;28.70;66.00
3790;DHT22;1910;49.042;9.028;2022-07-06T09:44:26;28.50;65.50
3790;DHT22;1910;49.042;9.028;2022-07-06T09:46:55;27.10;63.60
3790;DHT22;1910;49.042;9.028;2022-07-06T09:49:22;27.40;67.10
3790;DHT22;1910;49.042;9.028;2022-07-06T09:51:50;28.30;64.80
3790;DHT22;1910;49.042;9.028;2022-07-06T09:54:17;26.80;65.10
3790;DHT22;1910;49.042;9.028;2022-07-06T09:56:45;26.10;67.90
3790;DHT22;1910;49.042;9.028;2022-07-06T09:59:17;25.90;71.70
3790;DHT22;1910;49.042;9.028;2022-07-06T10:01:43;25.20;70.70
3790;DHT22;1910;49.042;9.028;2022-07-06T10:04:11;25.10;74.10
3790;DHT22;1910;49.042;9.028;2022-07-06T10:06:41;25.60;73.10
3790;DHT22;1910;49.042;9.028;2022-07-06T10:09:08;26.20;71.50
3790;DHT22;1910;49.042;9.028;2022-07-06T10:11:37;27.20;69.60
3790;DHT22;1910;49.042;9.028;2022-07-06T10:14:05;28.10;68.00
3790;DHT22;1910;49.042;9.028;2022-07-06T10:16:33;28.30;64.40
3790;DHT22;1910;49.042;9.028;2022-07-06T10:18:58;26.70;64.70
3790;DHT22;1910;49.042;9.028;2022-07-06T10:21:26;25.00;71.10
3790;DHT22;1910;49.042;9.028;2022-07-06T10:23:52;25.50;74.10
3790;DHT22;1910;49.042;9.028;2022-07-06T10:26:21;26.20;70.80
3790;DHT22;1910;49.042;9.028;2022-07-06T10:28:48;27.00;68.40
3790;DHT22;1910;49.042;9.028;2022-07-06T10:31:16;27.20;69.70
3790;DHT22;1910;49.042;9.028;2022-07-06T10:33:43;26.80;70.10
3790;DHT22;1910;49.042;9.028;2022-07-06T10:36:10;27.70;67.70
3790;DHT22;1910;49.042;9.028;2022-07-06T10:38:35;27.80;66.20
3790;DHT22;1910;49.042;9.028;2022-07-06T10:41:03;27.20;66.00
3790;DHT22;1910;49.042;9.028;2022-07-06T10:43:41;26.10;68.90
3790;DHT22;1910;49.042;9.028;2022-07-06T10:46:08;25.20;73.20
3790;DHT22;1910;49.042;9.028;2022-07-06T10:48:41;24.60;74.80
3790;DHT22;1910;49.042;9.028;2022-07-06T10:51:07;24.40;80.10
3790;DHT22;1910;49.042;9.028;2022-07-06T10:53:35;24.00;78.70
3790;DHT22;1910;49.042;9.028;2022-07-06T10:56:06;27.40;82.10
3790;DHT22;1910;49.042;9.028;2022-07-06T10:58:49;24.30;79.60
3790;DHT22;1910;49.042;9.028;2022-07-06T11:01:19;24.50;80.70
3790;DHT22;1910;49.042;9.028;2022-07-06T11:04:04;26.50;80.10
3790;DHT22;1910;49.042;9.028;2022-07-06T11:06:35;24.60;78.50
3790;DHT22;1910;49.042;9.028;2022-07-06T11:09:06;24.40;80.00
3790;DHT22;1910;49.042;9.028;2022-07-06T11:17:18;23.60;80.40
3790;DHT22;1910;49.042;9.028;2022-07-06T11:19:27;23.60;82.80
3790;DHT22;1910;49.042;9.028;2022-07-06T11:21:55;23.40;83.60
3790;DHT22;1910;49.042;9.028;2022-07-06T11:26:51;23.70;85.40
3790;DHT22;1910;49.042;9.028;2022-07-06T11:29:19;24.20;83.00
3790;DHT22;1910;49.042;9.028;2022-07-06T11:31:50;24.10;80.80
3790;DHT22;1910;49.042;9.028;2022-07-06T11:34:27;23.00;82.90
3790;DHT22;1910;49.042;9.028;2022-07-06T11:36:57;22.80;87.20
3790;DHT22;1910;49.042;9.028;2022-07-06T11:39:29;23.50;87.10
3790;DHT22;1910;49.042;9.028;2022-07-06T11:41:56;23.70;83.00
3790;DHT22;1910;49.042;9.028;2022-07-06T11:44:21;23.80;83.20
3790;DHT22;1910;49.042;9.028;2022-07-06T11:46:47;23.90;82.90
3790;DHT22;1910;49.042;9.028;2022-07-06T11:49:13;23.80;83.40
3790;DHT22;1910;49.042;9.028;2022-07-06T11:51:40;23.80;83.90
3790;DHT22;1910;49.042;9.028;2022-07-06T11:54:10;23.70;82.40
3790;DHT22;1910;49.042;9.028;2022-07-06T11:56:37;23.70;83.60
3790;DHT22;1910;49.042;9.028;2022-07-06T11:59:03;23.30;82.80
3790;DHT22;1910;49.042;9.028;2022-07-06T12:01:29;23.10;81.90
3790;DHT22;1910;49.042;9.028;2022-07-06T12:04:00;23.30;84.70
3790;DHT22;1910;49.042;9.028;2022-07-06T12:06:27;23.90;83.70
3790;DHT22;1910;49.042;9.028;2022-07-06T12:08:55;23.30;82.10
3790;DHT22;1910;49.042;9.028;2022-07-06T12:11:23;23.10;82.70
3790;DHT22;1910;49.042;9.028;2022-07-06T12:13:52;23.50;81.60
3790;DHT22;1910;49.042;9.028;2022-07-06T12:16:18;23.70;82.60
3790;DHT22;1910;49.042;9.028;2022-07-06T12:18:46;23.10;81.00
3790;DHT22;1910;49.042;9.028;2022-07-06T12:21:18;22.90;82.70
3790;DHT22;1910;49.042;9.028;2022-07-06T12:23:46;23.10;83.30
3790;DHT22;1910;49.042;9.028;2022-07-06T12:26:14;22.70;79.70
3790;DHT22;1910;49.042;9.028;2022-07-06T12:28:40;23.40;81.70
3790;DHT22;1910;49.042;9.028;2022-07-06T12:31:06;23.50;82.40
3790;DHT22;1910;49.042;9.028;2022-07-06T12:33:31;23.70;78.80
3790;DHT22;1910;49.042;9.028;2022-07-06T12:36:07;23.60;81.20
3790;DHT22;1910;49.042;9.028;2022-07-06T12:38:33;23.50;80.20
3790;DHT22;1910;49.042;9.028;2022-07-06T12:40:59;23.60;79.60
3790;DHT22;1910;49.042;9.028;2022-07-06T12:43:37;23.30;77.50
3790;DHT22;1910;49.042;9.028;2022-07-06T12:46:28;23.10;80.70
3790;DHT22;1910;49.042;9.028;2022-07-06T12:48:58;23.40;82.00
3790;DHT22;1910;49.042;9.028;2022-07-06T12:51:24;23.60;76.70
3790;DHT22;1910;49.042;9.028;2022-07-06T12:53:50;23.60;78.80
3790;DHT22;1910;49.042;9.028;2022-07-06T12:56:18;23.50;79.80
3790;DHT22;1910;49.042;9.028;2022-07-06T12:58:57;23.60;77.00
3790;DHT22;1910;49.042;9.028;2022-07-06T13:01:24;23.80;80.60
3790;DHT22;1910;49.042;9.028;2022-07-06T13:03:54;23.80;77.00
3790;DHT22;1910;49.042;9.028;2022-07-06T13:06:32;23.90;76.90
3790;DHT22;1910;49.042;9.028;2022-07-06T13:08:58;23.80;76.30
3790;DHT22;1910;49.042;9.028;2022-07-06T13:11:23;23.50;76.10
3790;DHT22;1910;49.042;9.028;2022-07-06T13:13:49;23.40;77.30
3790;DHT22;1910;49.042;9.028;2022-07-06T13:16:14;23.30;76.10
3790;DHT22;1910;49.042;9.028;2022-07-06T13:18:40;23.10;78.10
3790;DHT22;1910;49.042;9.028;2022-07-06T13:21:12;23.20;76.80
3790;DHT22;1910;49.042;9.028;2022-07-06T13:23:37;23.10;78.30
3790;DHT22;1910;49.042;9.028;2022-07-06T13:26:03;23.40;80.30
3790;DHT22;1910;49.042;9.028;2022-07-06T13:28:31;23.20;75.40
3790;DHT22;1910;49.042;9.028;2022-07-06T13:30:57;23.00;76.00
3790;DHT22;1910;49.042;9.028;2022-07-06T13:33:22;23.10;76.30
3790;DHT22;1910;49.042;9.028;2022-07-06T13:35:48;22.70;77.10
3790;DHT22;1910;49.042;9.028;2022-07-06T13:38:16;22.90;78.10
3790;DHT22;1910;49.042;9.028;2022-07-06T13:40:41;23.20;76.70
3790;DHT22;1910;49.042;9.028;2022-07-06T13:43:08;23.40;74.50
3790;DHT22;1910;49.042;9.028;2022-07-06T13:45:34;23.30;74.80
3790;DHT22;1910;49.042;9.028;2022-07-06T13:47:59;23.00;73.60
3790;DHT22;1910;49.042;9.028;2022-07-06T13:50:24;23.20;77.10
3790;DHT22;1910;49.042;9.028;2022-07-06T13:52:52;23.00;74.30
3790;DHT22;1910;49.042;9.028;2022-07-06T13:55:17;23.30;76.30
3790;DHT22;1910;49.042;9.028;2022-07-06T13:57:43;23.40;73.50
3790;DHT22;1910;49.042;9.028;2022-07-06T14:00:09;23.50;76.80
3790;DHT22;1910;49.042;9.028;2022-07-06T14:02:35;23.40;74.50
3790;DHT22;1910;49.042;9.028;2022-07-06T14:05:00;23.30;73.50
3790;DHT22;1910;49.042;9.028;2022-07-06T14:07:26;24.10;75.20
3790;DHT22;1910;49.042;9.028;2022-07-06T14:09:52;23.60;73.20
3790;DHT22;1910;49.042;9.028;2022-07-06T14:12:17;23.60;73.20
3790;DHT22;1910;49.042;9.028;2022-07-06T14:14:44;23.30;72.70
3790;DHT22;1910;49.042;9.028;2022-07-06T14:17:09;23.50;74.20
3790;DHT22;1910;49.042;9.028;2022-07-06T14:19:35;23.60;71.70
3790;DHT22;1910;49.042;9.028;2022-07-06T14:22:00;23.50;74.10
3790;DHT22;1910;49.042;9.028;2022-07-06T14:24:26;23.10;68.90
3790;DHT22;1910;49.042;9.028;2022-07-06T14:26:51;23.00;71.70
3790;DHT22;1910;49.042;9.028;2022-07-06T14:29:17;23.20;74.10
3790;DHT22;1910;49.042;9.028;2022-07-06T14:31:42;23.30;71.90
3790;DHT22;1910;49.042;9.028;2022-07-06T14:34:08;23.50;73.80
3790;DHT22;1910;49.042;9.028;2022-07-06T14:36:37;23.70;71.40
3790;DHT22;1910;49.042;9.028;2022-07-06T14:39:03;23.70;70.60
3790;DHT22;1910;49.042;9.028;2022-07-06T14:41:29;23.80;70.70
3790;DHT22;1910;49.042;9.028;2022-07-06T14:43:55;23.50;70.40
3790;DHT22;1910;49.042;9.028;2022-07-06T14:46:24;23.30;70.80
3790;DHT22;1910;49.042;9.028;2022-07-06T14:48:49;23.60;69.00
3790;DHT22;1910;49.042;9.028;2022-07-06T14:53:41;23.90;68.00
3790;DHT22;1910;49.042;9.028;2022-07-06T14:56:06;23.90;67.90
3790;DHT22;1910;49.042;9.028;2022-07-06T14:58:33;23.30;66.20
3790;DHT22;1910;49.042;9.028;2022-07-06T15:00:59;23.00;67.40
3790;DHT22;1910;49.042;9.028;2022-07-06T15:03:25;23.20;66.90
3790;DHT22;1910;49.042;9.028;2022-07-06T15:05:50;23.40;68.50
3790;DHT22;1910;49.042;9.028;2022-07-06T15:08:16;23.70;69.60
3790;DHT22;1910;49.042;9.028;2022-07-06T15:10:43;23.80;68.40
3790;DHT22;1910;49.042;9.028;2022-07-06T15:13:09;23.80;67.70
3790;DHT22;1910;49.042;9.028;2022-07-06T15:15:35;23.90;68.80
3790;DHT22;1910;49.042;9.028;2022-07-06T15:18:01;23.90;67.00
3790;DHT22;1910;49.042;9.028;2022-07-06T15:20:27;24.10;65.50
3790;DHT22;1910;49.042;9.028;2022-07-06T15:22:53;23.80;62.80
3790;DHT22;1910;49.042;9.028;2022-07-06T15:25:19;23.50;62.30
3790;DHT22;1910;49.042;9.028;2022-07-06T15:27:45;23.50;65.30
3790;DHT22;1910;49.042;9.028;2022-07-06T15:30:11;23.70;64.40
3790;DHT22;1910;49.042;9.028;2022-07-06T15:32:37;23.70;64.20
3790;DHT22;1910;49.042;9.028;2022-07-06T15:35:13;23.70;62.40
3790;DHT22;1910;49.042;9.028;2022-07-06T15:37:38;23.80;64.40
3790;DHT22;1910;49.042;9.028;2022-07-06T15:40:04;24.10;66.50
3790;DHT22;1910;49.042;9.028;2022-07-06T15:42:31;23.90;62.40
3790;DHT22;1910;49.042;9.028;2022-07-06T15:44:59;23.50;62.90
3790;DHT22;1910;49.042;9.028;2022-07-06T15:47:25;23.20;61.60
3790;DHT22;1910;49.042;9.028;2022-07-06T15:49:50;23.10;63.50
3790;DHT22;1910;49.042;9.028;2022-07-06T15:52:21;23.00;64.00
3790;DHT22;1910;49.042;9.028;2022-07-06T15:54:47;23.20;65.40
3790;DHT22;1910;49.042;9.028;2022-07-06T15:57:14;23.20;63.00
3790;DHT22;1910;49.042;9.028;2022-07-06T15:59:40;23.30;64.00
3790;DHT22;1910;49.042;9.028;2022-07-06T16:02:05;23.30;62.70
3790;DHT22;1910;49.042;9.028;2022-07-06T16:04:31;23.30;63.90
3790;DHT22;1910;49.042;9.028;2022-07-06T16:06:56;23.10;62.20
3790;DHT22;1910;49.042;9.028;2022-07-06T16:09:22;22.80;62.00
3790;DHT22;1910;49.042;9.028;2022-07-06T16:11:48;22.90;63.70